MUHAMHTG

Guest
Details From MUHA - Havana Jose Marti Intl
To MHTG - Tegucigalpa Toncontin Intl
Flight Number -
Tags generated
Created
Modified
Stats Distance 614 nm / 1,138 km
Max Altitude 34,000 ft / 10,363 m
Waypoints 8
Social Downloads 3
Likes 1
Share VATSIM

Download

Looking for another format? Having issues loading an existing format? Contact us
Advertisement - Login to hide

Notes

Basic altitude profile: - Ascent Rate: 2500ft/min - Ascent Speed: 250kts - Cruise Altitude: 35000ft - Cruise Speed: 420kts - Descent Rate: 1500ft/min - Descent Speed: 250kts Options: - Use NATs: yes - Use PACOTS: yes - Use low airways: yes - Use high airways: yes

Route

MUHA UNG UL471 GABIX ROA UR645 BTO A754 TALAG MHTG

ID Type Via Altitude Latitude Longitude Leg Dist Tot Dist Heading (true) Name
O MUHA APT - 0 ft / 0 m 22.98915˚ -82.40909˚ - 0 nm - Havana Jose Marti Intl
UNG NDB - 28,000 ft / 8,534 m 21.75589˚ -82.87817˚ 78 nm 78 nm 199° / 199° GERONA NDB
PABEL FIX UL471 (AWY-HI) 34,000 ft / 10,363 m 20.45333˚ -83.95167˚ 98 nm 177 nm 218° / 217° -
GABIX FIX UL471 (AWY-HI) 34,000 ft / 10,363 m 17.20861˚ -86.43194˚ 240 nm 417 nm 216° / 215° -
ROA VOR - 30,500 ft / 9,296 m 16.31655˚ -86.52178˚ 53 nm 471 nm 186° / 185° ROATAN VOR-DME
BTO VOR UR645 (AWY-HI) 22,000 ft / 6,706 m 15.73676˚ -86.86397˚ 40 nm 511 nm 210° / 210° BONITO VOR-DME
TALAG FIX A754 (AWY-LO) 10,000 ft / 3,048 m 14.43639˚ -87.14278˚ 79 nm 591 nm 192° / 192° -
O MHTG APT - 0 ft / 0 m 14.06088˚ -87.21720˚ 22 nm 614 nm 191° / 191° Tegucigalpa Toncontin Intl

Altitude Profile

Advertisement - Login to hide

Weather


0- 5 10 15 20 25 30 35+ Temperature / ° C

Clouds and Precipitation
Forecast for 2017-12-12 00:00 UTC. Updated 21 minutes ago

Ground ~20,000 ft ~40,000 ft Winds

MUHA

Details ICAO MUHA (HAV)
Name Havana Jose Marti Intl
Region Cuba
Timezone America/Havana (UTC-5.0)
Stats Elevation 209 ft / 64 m (AMSL)
Location 22.989154° -82.409086°
Runways 1
Magnetic Variation 4.907° W

METAR

MUHA 112255Z 02007KT 360V060 9999 SCT025 18/11 Q1021

Decode

TAF

Not found

Departure Runways

ID Width Length Bearing (true) Bearing (mag) Surface Threshold Offset Overrun Length
06 148 ft / 45 m 13,133 ft / 4,003 m 54.21° 59.12° Asphalt 0 ft / 0 m 476 ft / 145 m
24 148 ft / 45 m 13,133 ft / 4,003 m 234.23° 239.14° Asphalt 0 ft / 0 m 197 ft / 60 m

MHTG

Details ICAO MHTG (TGU)
Name Tegucigalpa Toncontin Intl
Region Honduras
Timezone America/Tegucigalpa (UTC-6.0)
Stats Elevation 3,294 ft / 1,004 m (AMSL)
Location 14.060883° -87.217197°
Runways 1
Magnetic Variation 0.659° W

METAR

MHTG 112300Z 03014KT 9999 FEW012 BKN026 15/12 Q1022 A3018 NOSIG

Decode

TAF

Not found

Destination Runways

ID Width Length Bearing (true) Bearing (mag) Surface Threshold Offset Overrun Length
02 148 ft / 45 m 6,140 ft / 1,872 m 18.87° 19.53° Asphalt 670 ft / 204 m 100 ft / 30 m
20 148 ft / 45 m 6,140 ft / 1,872 m 198.87° 199.53° Asphalt 0 ft / 0 m 200 ft / 61 m

Popular Alternatives